• Join FlightAware (Why Join?)
  • Login
  • US Flag 
10:51AM EDT


 

Airport Tracker/Info


-or-


 

Live Flight TrackerFlight Track Log ✈ EJA600 ✈ 24-Apr-2012 ✈ KLNK - KMKC

Flight Track Log - Related Links

Times and Time Zones

All times are in EDT time to prevent confusion due to time zone crossing. See the EJA600 flight status page for this flight to view local times or setup timezone preferences in your user account.

Time Position Orientation Groundspeed Altitude Reporting Facility
EDT Latitude Longitude Course Direction KTS MPH feet Rate Location/Type
04:48PM 40.8567 -96.7478 47° Northeast 163 188 2,000  Level Minneapolis Center
04:49PM 40.9086 -96.6736 111° Southeast 244 281 4,900 1,920 Climbing Minneapolis Center
04:50PM 40.8917 -96.6153 126° Southeast 274 315 6,200 2,040 Climbing Minneapolis Center
04:51PM 40.8364 -96.5139 149° Southeast 302 348 8,700 2,340 Climbing Minneapolis Center
04:52PM 40.7631 -96.4556 163° South 318 366 11,200 2,160 Climbing Minneapolis Center
04:53PM 40.6808 -96.4217 161° South 331 381 13,500 1,740 Climbing Minneapolis Center
04:54PM 40.5842 -96.3789 162° South 345 397 15,000 720 Climbing Minneapolis Center
04:55PM 40.4794 -96.3331 160° South 375 432 15,000  Level Minneapolis Center
04:56PM 40.3767 -96.2850 147° Southeast 388 447 15,000  Level Minneapolis Center
04:59PM 40.1581 -96.1019 121° Southeast 390 449 15,000  Level Kansas City Center
05:00PM 40.1011 -95.9789 121° Southeast 384 442 15,000  Level Kansas City Center
05:01PM 40.0506 -95.8692 119° Southeast 395 455 15,000 -780 Level Kansas City Center
05:02PM 39.9997 -95.7492 121° Southeast 389 448 13,500 -1,800 Descending Kansas City Center
05:03PM 39.9444 -95.6292 121° Southeast 358 412 11,400 -1,260 Descending Kansas City Center
05:04PM 39.8936 -95.5175 122° Southeast 351 404 11,000 -540 Descending Kansas City Center
05:05PM 39.8483 -95.4247 138° Southeast 341 392 10,400 -1,140 Descending Kansas City Center
05:06PM 39.7844 -95.3511 142° Southeast 319 367 8,800 -1,680 Descending Kansas City Center
05:07PM 39.7078 -95.2719 130° Southeast 311 358 7,100 -900 Descending Kansas City Center
05:08PM 39.6542 -95.1878 122° Southeast 310 357 7,000 -60 Descending Kansas City Center
05:09PM 39.6108 -95.0986 122° Southeast 320 368 7,000 -360 Level Kansas City Center
05:10PM 39.5633 -95.0014 134° Southeast 325 374 6,300 -540 Descending Kansas City Center
05:11PM 39.5031 -94.9203 166° South 318 366 6,000 -180 Descending Kansas City Center
05:12PM 39.4261 -94.8956 160° South 270 311 6,000  Level Kansas City Center
05:13PM 39.3553 -94.8631 100° East 281 323 6,000  Level Kansas City Center
05:14PM 39.3431 -94.7744 95° East 241 277 6,000  Level Kansas City Center
05:15PM 39.3369 -94.6858 94° East 236 272 6,000 -360 Level Kansas City Center
05:16PM 39.3308 -94.5811 143° Southeast 252 290 5,300 -720 Descending Kansas City Center
05:17PM 39.2872 -94.5381 192° South 210 242 4,600 -1,020 Descending Kansas City Center
05:19PM 39.1833 -94.5667 201° Southwest 147 169 2,000 -1,080 Descending Kansas City TRACON
05:20PM 39.1500 -94.5833 201° Southwest 127 146 1,100 -900 Descending Kansas City TRACON